KAZO/AZO METAR and TAF weather

Enter ICAO airport designator
Station Type Date Time Source
KAZO METAR 2019/08/19 21:53 UTC NOAA

KAZO 192153Z 23006KT 10SM FEW038 BKN060 BKN075 29/19 A3003 RMK AO2 SLP162 T02890194


Station Type Date Time Source
KAZO Decoded METAR 2019/08/19 21:53 UTC NOAA

KALAMAZOO/BATTLE CREEK AIRPORT, MI, United States (KAZO) 42-14N 085-33W 272M
Aug 19, 2019 - 05:53 PM EDT / 2019.08.19 2153 UTC
Wind: from the SW (230 degrees) at 7 MPH (6 KT):0
Visibility: 10 mile(s):0
Sky conditions: mostly cloudy
Temperature: 84.0 F (28.9 C)
Dew Point: 66.9 F (19.4 C)
Relative Humidity: 56%
Pressure (altimeter): 30.03 in. Hg (1016 hPa)
ob: KAZO 192153Z 23006KT 10SM FEW038 BKN060 BKN075 29/19 A3003 RMK AO2 SLP162 T02890194
cycle: 22

Station Type Date Time Source
KAZO TAF 2019/08/19 21:03 UTC NOAA

TAF
AMD KAZO 192101Z 1921/2018 18007KT P6SM BKN035
FM200600 00000KT 5SM BR BKN050
FM200800 00000KT 2SM BR BKN025
FM201000 00000KT 1SM BR BKN015
FM201400 18004KT 5SM BR SCT035
FM201500 20005KT P6SM SCT050

Example: see airport list